sensor_id;sensor_type;location;lat;lon;timestamp;temperature;humidity
9167;DHT22;4618;48.818;9.088;2022-07-03T00:00:09;18.10;1.00
9167;DHT22;4618;48.818;9.088;2022-07-03T00:02:34;18.10;1.00
9167;DHT22;4618;48.818;9.088;2022-07-03T00:05:00;18.10;1.00
9167;DHT22;4618;48.818;9.088;2022-07-03T00:07:25;18.00;1.00
9167;DHT22;4618;48.818;9.088;2022-07-03T00:09:51;17.90;1.00
9167;DHT22;4618;48.818;9.088;2022-07-03T00:12:16;17.80;99.90
9167;DHT22;4618;48.818;9.088;2022-07-03T00:14:42;17.70;99.90
9167;DHT22;4618;48.818;9.088;2022-07-03T00:17:08;17.70;99.90
9167;DHT22;4618;48.818;9.088;2022-07-03T00:19:33;17.70;99.90
9167;DHT22;4618;48.818;9.088;2022-07-03T00:22:05;17.70;99.90
9167;DHT22;4618;48.818;9.088;2022-07-03T00:25:02;17.60;99.90
9167;DHT22;4618;48.818;9.088;2022-07-03T00:27:28;17.30;1.00
9167;DHT22;4618;48.818;9.088;2022-07-03T00:30:00;17.10;1.00
9167;DHT22;4618;48.818;9.088;2022-07-03T00:32:26;16.80;99.90
9167;DHT22;4618;48.818;9.088;2022-07-03T00:34:54;16.60;1.00
9167;DHT22;4618;48.818;9.088;2022-07-03T00:37:20;16.40;1.00
9167;DHT22;4618;48.818;9.088;2022-07-03T00:39:46;16.30;1.00
9167;DHT22;4618;48.818;9.088;2022-07-03T00:42:13;16.20;99.90
9167;DHT22;4618;48.818;9.088;2022-07-03T00:47:14;16.00;99.90
9167;DHT22;4618;48.818;9.088;2022-07-03T00:49:43;16.00;99.90
9167;DHT22;4618;48.818;9.088;2022-07-03T00:52:11;16.00;99.90
9167;DHT22;4618;48.818;9.088;2022-07-03T00:54:42;16.00;99.90
9167;DHT22;4618;48.818;9.088;2022-07-03T00:57:14;16.00;99.90
9167;DHT22;4618;48.818;9.088;2022-07-03T00:59:40;16.10;99.90
9167;DHT22;4618;48.818;9.088;2022-07-03T01:02:06;16.10;72.80
9167;DHT22;4618;48.818;9.088;2022-07-03T01:07:12;16.10;99.90
9167;DHT22;4618;48.818;9.088;2022-07-03T01:10:16;16.00;99.90
9167;DHT22;4618;48.818;9.088;2022-07-03T01:13:07;16.00;1.00
9167;DHT22;4618;48.818;9.088;2022-07-03T01:26:39;15.60;99.90
9167;DHT22;4618;48.818;9.088;2022-07-03T01:29:14;15.50;1.00
9167;DHT22;4618;48.818;9.088;2022-07-03T01:31:43;15.50;1.00
9167;DHT22;4618;48.818;9.088;2022-07-03T01:34:13;15.60;1.00
9167;DHT22;4618;48.818;9.088;2022-07-03T01:36:43;15.50;1.00
9167;DHT22;4618;48.818;9.088;2022-07-03T01:39:10;15.50;1.00
9167;DHT22;4618;48.818;9.088;2022-07-03T01:41:37;15.40;1.00
9167;DHT22;4618;48.818;9.088;2022-07-03T01:44:03;15.50;1.00
9167;DHT22;4618;48.818;9.088;2022-07-03T01:46:30;15.50;1.00
9167;DHT22;4618;48.818;9.088;2022-07-03T01:48:57;15.50;1.00
9167;DHT22;4618;48.818;9.088;2022-07-03T01:51:23;15.50;1.00
9167;DHT22;4618;48.818;9.088;2022-07-03T01:53:51;15.50;1.00
9167;DHT22;4618;48.818;9.088;2022-07-03T01:56:18;15.40;1.00
9167;DHT22;4618;48.818;9.088;2022-07-03T01:58:44;15.40;1.00
9167;DHT22;4618;48.818;9.088;2022-07-03T02:06:56;15.50;1.00
9167;DHT22;4618;48.818;9.088;2022-07-03T02:09:35;15.50;1.00
9167;DHT22;4618;48.818;9.088;2022-07-03T02:12:02;15.40;1.00
9167;DHT22;4618;48.818;9.088;2022-07-03T02:14:32;15.40;1.00
9167;DHT22;4618;48.818;9.088;2022-07-03T02:19:55;15.30;1.00
9167;DHT22;4618;48.818;9.088;2022-07-03T02:22:27;15.30;1.00
9167;DHT22;4618;48.818;9.088;2022-07-03T02:25:05;15.30;1.00
9167;DHT22;4618;48.818;9.088;2022-07-03T02:28:25;15.30;1.00
9167;DHT22;4618;48.818;9.088;2022-07-03T02:30:34;15.30;1.00
9167;DHT22;4618;48.818;9.088;2022-07-03T02:33:02;15.30;1.00
9167;DHT22;4618;48.818;9.088;2022-07-03T02:35:30;15.30;99.90
9167;DHT22;4618;48.818;9.088;2022-07-03T02:38:06;15.30;1.00
9167;DHT22;4618;48.818;9.088;2022-07-03T02:40:44;15.20;99.90
9167;DHT22;4618;48.818;9.088;2022-07-03T02:46:07;15.10;1.00
9167;DHT22;4618;48.818;9.088;2022-07-03T02:49:11;15.20;1.00
9167;DHT22;4618;48.818;9.088;2022-07-03T02:51:41;15.30;99.90
9167;DHT22;4618;48.818;9.088;2022-07-03T02:54:13;15.30;1.00
9167;DHT22;4618;48.818;9.088;2022-07-03T02:57:04;15.30;1.00
9167;DHT22;4618;48.818;9.088;2022-07-03T02:59:56;15.40;1.00
9167;DHT22;4618;48.818;9.088;2022-07-03T03:05:05;15.40;1.00
9167;DHT22;4618;48.818;9.088;2022-07-03T03:10:08;15.40;1.00
9167;DHT22;4618;48.818;9.088;2022-07-03T03:12:38;15.50;1.00
9167;DHT22;4618;48.818;9.088;2022-07-03T03:15:08;15.60;99.90
9167;DHT22;4618;48.818;9.088;2022-07-03T03:17:43;15.60;99.90
9167;DHT22;4618;48.818;9.088;2022-07-03T03:20:14;15.60;99.90
9167;DHT22;4618;48.818;9.088;2022-07-03T03:23:04;15.60;99.90
9167;DHT22;4618;48.818;9.088;2022-07-03T03:25:34;15.60;99.90
9167;DHT22;4618;48.818;9.088;2022-07-03T03:28:00;15.80;99.20
9167;DHT22;4618;48.818;9.088;2022-07-03T03:30:26;15.80;18.40
9167;DHT22;4618;48.818;9.088;2022-07-03T03:32:51;15.90;1.00
9167;DHT22;4618;48.818;9.088;2022-07-03T03:35:17;16.00;1.00
9167;DHT22;4618;48.818;9.088;2022-07-03T03:37:45;16.10;99.90
9167;DHT22;4618;48.818;9.088;2022-07-03T03:40:11;16.10;99.90
9167;DHT22;4618;48.818;9.088;2022-07-03T03:42:37;16.10;99.90
9167;DHT22;4618;48.818;9.088;2022-07-03T03:45:03;15.90;99.90
9167;DHT22;4618;48.818;9.088;2022-07-03T03:47:29;15.90;99.90
9167;DHT22;4618;48.818;9.088;2022-07-03T03:49:54;15.70;1.00
9167;DHT22;4618;48.818;9.088;2022-07-03T03:52:20;15.60;99.90
9167;DHT22;4618;48.818;9.088;2022-07-03T03:54:46;15.60;1.00
9167;DHT22;4618;48.818;9.088;2022-07-03T03:57:30;15.60;99.90
9167;DHT22;4618;48.818;9.088;2022-07-03T03:59:55;15.60;1.00
9167;DHT22;4618;48.818;9.088;2022-07-03T04:02:22;15.60;1.00
9167;DHT22;4618;48.818;9.088;2022-07-03T04:04:48;15.70;99.90
9167;DHT22;4618;48.818;9.088;2022-07-03T04:07:13;15.70;99.90
9167;DHT22;4618;48.818;9.088;2022-07-03T04:09:39;15.80;1.00
9167;DHT22;4618;48.818;9.088;2022-07-03T04:12:05;16.10;1.00
9167;DHT22;4618;48.818;9.088;2022-07-03T04:14:31;16.50;45.20
9167;DHT22;4618;48.818;9.088;2022-07-03T04:16:56;16.70;1.00
9167;DHT22;4618;48.818;9.088;2022-07-03T04:19:22;16.80;1.00
9167;DHT22;4618;48.818;9.088;2022-07-03T04:21:49;16.90;99.90
9167;DHT22;4618;48.818;9.088;2022-07-03T04:24:17;17.00;99.90
9167;DHT22;4618;48.818;9.088;2022-07-03T04:26:43;17.10;99.90
9167;DHT22;4618;48.818;9.088;2022-07-03T04:29:08;17.10;99.90
9167;DHT22;4618;48.818;9.088;2022-07-03T04:31:34;17.20;99.90
9167;DHT22;4618;48.818;9.088;2022-07-03T04:33:59;17.20;99.90
9167;DHT22;4618;48.818;9.088;2022-07-03T04:36:25;17.30;99.90
9167;DHT22;4618;48.818;9.088;2022-07-03T04:38:51;17.30;99.90
9167;DHT22;4618;48.818;9.088;2022-07-03T04:41:16;17.40;93.00
9167;DHT22;4618;48.818;9.088;2022-07-03T04:43:42;17.70;1.00
9167;DHT22;4618;48.818;9.088;2022-07-03T04:46:07;17.80;1.00
9167;DHT22;4618;48.818;9.088;2022-07-03T04:48:33;18.00;99.90
9167;DHT22;4618;48.818;9.088;2022-07-03T04:50:59;18.20;99.90
9167;DHT22;4618;48.818;9.088;2022-07-03T04:53:24;18.30;99.90
9167;DHT22;4618;48.818;9.088;2022-07-03T04:55:50;18.40;1.00
9167;DHT22;4618;48.818;9.088;2022-07-03T04:58:17;18.60;1.00
9167;DHT22;4618;48.818;9.088;2022-07-03T05:00:44;18.60;1.00
9167;DHT22;4618;48.818;9.088;2022-07-03T05:03:10;18.60;1.00
9167;DHT22;4618;48.818;9.088;2022-07-03T05:05:36;18.80;1.00
9167;DHT22;4618;48.818;9.088;2022-07-03T05:08:01;18.90;99.90
9167;DHT22;4618;48.818;9.088;2022-07-03T05:10:27;19.10;99.90
9167;DHT22;4618;48.818;9.088;2022-07-03T05:12:53;19.20;99.90
9167;DHT22;4618;48.818;9.088;2022-07-03T05:15:19;19.30;68.20
9167;DHT22;4618;48.818;9.088;2022-07-03T05:17:45;19.40;16.70
9167;DHT22;4618;48.818;9.088;2022-07-03T05:20:12;19.50;1.00
9167;DHT22;4618;48.818;9.088;2022-07-03T05:22:50;19.60;1.00
9167;DHT22;4618;48.818;9.088;2022-07-03T05:25:16;19.70;1.00
9167;DHT22;4618;48.818;9.088;2022-07-03T05:27:42;19.80;1.00
9167;DHT22;4618;48.818;9.088;2022-07-03T05:30:08;19.90;1.00
9167;DHT22;4618;48.818;9.088;2022-07-03T05:32:33;19.90;1.00
9167;DHT22;4618;48.818;9.088;2022-07-03T05:34:59;20.00;1.00
9167;DHT22;4618;48.818;9.088;2022-07-03T05:37:25;20.00;1.00
9167;DHT22;4618;48.818;9.088;2022-07-03T05:39:50;20.10;1.00
9167;DHT22;4618;48.818;9.088;2022-07-03T05:42:16;20.20;1.00
9167;DHT22;4618;48.818;9.088;2022-07-03T05:44:41;20.40;1.00
9167;DHT22;4618;48.818;9.088;2022-07-03T05:47:07;20.50;1.00
9167;DHT22;4618;48.818;9.088;2022-07-03T05:49:32;20.70;1.00
9167;DHT22;4618;48.818;9.088;2022-07-03T05:51:58;20.80;1.00
9167;DHT22;4618;48.818;9.088;2022-07-03T05:54:23;20.80;1.00
9167;DHT22;4618;48.818;9.088;2022-07-03T05:56:49;20.80;1.00
9167;DHT22;4618;48.818;9.088;2022-07-03T05:59:14;21.00;1.00
9167;DHT22;4618;48.818;9.088;2022-07-03T06:01:40;21.00;1.00
9167;DHT22;4618;48.818;9.088;2022-07-03T06:04:06;21.20;1.00
9167;DHT22;4618;48.818;9.088;2022-07-03T06:06:31;21.30;1.00
9167;DHT22;4618;48.818;9.088;2022-07-03T06:08:57;21.30;1.00
9167;DHT22;4618;48.818;9.088;2022-07-03T06:11:22;21.40;1.00
9167;DHT22;4618;48.818;9.088;2022-07-03T06:13:48;21.50;1.00
9167;DHT22;4618;48.818;9.088;2022-07-03T06:16:14;21.60;99.90
9167;DHT22;4618;48.818;9.088;2022-07-03T06:18:39;21.70;1.00
9167;DHT22;4618;48.818;9.088;2022-07-03T06:21:05;21.80;1.00
9167;DHT22;4618;48.818;9.088;2022-07-03T06:23:30;21.90;99.90
9167;DHT22;4618;48.818;9.088;2022-07-03T06:25:56;22.00;99.90
9167;DHT22;4618;48.818;9.088;2022-07-03T06:28:22;22.20;99.90
9167;DHT22;4618;48.818;9.088;2022-07-03T06:30:47;22.40;99.90
9167;DHT22;4618;48.818;9.088;2022-07-03T06:33:13;22.40;99.90
9167;DHT22;4618;48.818;9.088;2022-07-03T06:35:38;22.60;99.90
9167;DHT22;4618;48.818;9.088;2022-07-03T06:38:04;22.60;99.90
9167;DHT22;4618;48.818;9.088;2022-07-03T06:40:30;22.60;99.90
9167;DHT22;4618;48.818;9.088;2022-07-03T06:42:56;22.60;99.90
9167;DHT22;4618;48.818;9.088;2022-07-03T06:45:22;22.70;99.90
9167;DHT22;4618;48.818;9.088;2022-07-03T06:47:48;22.80;99.90
9167;DHT22;4618;48.818;9.088;2022-07-03T06:50:13;22.90;99.90
9167;DHT22;4618;48.818;9.088;2022-07-03T06:52:39;22.90;99.90
9167;DHT22;4618;48.818;9.088;2022-07-03T06:55:05;23.00;99.90
9167;DHT22;4618;48.818;9.088;2022-07-03T06:57:31;23.00;99.90
9167;DHT22;4618;48.818;9.088;2022-07-03T06:59:57;23.00;99.90
9167;DHT22;4618;48.818;9.088;2022-07-03T07:02:22;23.10;99.90
9167;DHT22;4618;48.818;9.088;2022-07-03T07:04:48;23.20;99.90
9167;DHT22;4618;48.818;9.088;2022-07-03T07:07:14;23.20;99.90
9167;DHT22;4618;48.818;9.088;2022-07-03T07:09:40;23.40;99.90
9167;DHT22;4618;48.818;9.088;2022-07-03T07:12:06;23.50;99.90
9167;DHT22;4618;48.818;9.088;2022-07-03T07:14:32;23.50;99.90
9167;DHT22;4618;48.818;9.088;2022-07-03T07:16:57;23.60;99.90
9167;DHT22;4618;48.818;9.088;2022-07-03T07:19:23;23.70;99.90
9167;DHT22;4618;48.818;9.088;2022-07-03T07:21:48;24.00;99.90
9167;DHT22;4618;48.818;9.088;2022-07-03T07:24:14;24.10;99.90
9167;DHT22;4618;48.818;9.088;2022-07-03T07:26:40;24.30;99.90
9167;DHT22;4618;48.818;9.088;2022-07-03T07:29:06;24.50;99.90
9167;DHT22;4618;48.818;9.088;2022-07-03T07:31:31;24.70;99.90
9167;DHT22;4618;48.818;9.088;2022-07-03T07:33:57;25.00;99.90
9167;DHT22;4618;48.818;9.088;2022-07-03T07:36:22;25.20;99.90
9167;DHT22;4618;48.818;9.088;2022-07-03T07:38:48;25.40;99.90
9167;DHT22;4618;48.818;9.088;2022-07-03T07:41:13;25.30;99.90
9167;DHT22;4618;48.818;9.088;2022-07-03T07:43:39;25.60;99.90
9167;DHT22;4618;48.818;9.088;2022-07-03T07:46:04;26.00;99.90
9167;DHT22;4618;48.818;9.088;2022-07-03T07:48:30;26.40;99.90
9167;DHT22;4618;48.818;9.088;2022-07-03T07:50:56;26.40;99.90
9167;DHT22;4618;48.818;9.088;2022-07-03T07:53:22;26.40;99.90
9167;DHT22;4618;48.818;9.088;2022-07-03T07:55:47;26.20;99.90
9167;DHT22;4618;48.818;9.088;2022-07-03T07:58:13;26.40;99.90
9167;DHT22;4618;48.818;9.088;2022-07-03T08:00:39;26.50;99.90
9167;DHT22;4618;48.818;9.088;2022-07-03T08:03:24;27.00;99.90
9167;DHT22;4618;48.818;9.088;2022-07-03T08:06:09;27.10;99.90
9167;DHT22;4618;48.818;9.088;2022-07-03T08:08:35;27.30;99.90
9167;DHT22;4618;48.818;9.088;2022-07-03T08:11:00;27.30;99.90
9167;DHT22;4618;48.818;9.088;2022-07-03T08:13:26;27.50;99.90
9167;DHT22;4618;48.818;9.088;2022-07-03T08:15:52;27.40;99.90
9167;DHT22;4618;48.818;9.088;2022-07-03T08:18:17;27.40;99.90
9167;DHT22;4618;48.818;9.088;2022-07-03T08:20:43;27.40;99.90
9167;DHT22;4618;48.818;9.088;2022-07-03T08:23:09;27.80;99.90
9167;DHT22;4618;48.818;9.088;2022-07-03T08:25:35;27.90;99.90
9167;DHT22;4618;48.818;9.088;2022-07-03T08:28:00;28.10;99.90
9167;DHT22;4618;48.818;9.088;2022-07-03T08:30:26;28.80;99.90
9167;DHT22;4618;48.818;9.088;2022-07-03T08:32:54;29.20;99.90
9167;DHT22;4618;48.818;9.088;2022-07-03T08:37:47;29.40;99.90
9167;DHT22;4618;48.818;9.088;2022-07-03T08:40:14;29.60;99.90
9167;DHT22;4618;48.818;9.088;2022-07-03T08:42:48;29.40;99.90
9167;DHT22;4618;48.818;9.088;2022-07-03T08:45:19;29.30;99.90
9167;DHT22;4618;48.818;9.088;2022-07-03T08:47:47;29.40;99.90
9167;DHT22;4618;48.818;9.088;2022-07-03T08:50:14;29.60;99.90
9167;DHT22;4618;48.818;9.088;2022-07-03T08:52:41;29.50;99.90
9167;DHT22;4618;48.818;9.088;2022-07-03T08:57:36;30.30;99.90
9167;DHT22;4618;48.818;9.088;2022-07-03T09:02:31;30.90;99.90
9167;DHT22;4618;48.818;9.088;2022-07-03T09:04:58;30.50;99.90
9167;DHT22;4618;48.818;9.088;2022-07-03T09:07:26;29.60;99.90
9167;DHT22;4618;48.818;9.088;2022-07-03T09:09:52;29.50;99.90
9167;DHT22;4618;48.818;9.088;2022-07-03T09:12:19;29.90;99.90
9167;DHT22;4618;48.818;9.088;2022-07-03T09:14:44;29.40;99.90
9167;DHT22;4618;48.818;9.088;2022-07-03T09:17:10;29.60;99.90
9167;DHT22;4618;48.818;9.088;2022-07-03T09:19:46;29.60;99.90
9167;DHT22;4618;48.818;9.088;2022-07-03T09:22:26;29.80;99.90
9167;DHT22;4618;48.818;9.088;2022-07-03T09:24:55;30.20;99.90
9167;DHT22;4618;48.818;9.088;2022-07-03T09:27:27;30.50;99.90
9167;DHT22;4618;48.818;9.088;2022-07-03T09:30:02;31.60;99.90
9167;DHT22;4618;48.818;9.088;2022-07-03T09:32:47;33.30;99.90
9167;DHT22;4618;48.818;9.088;2022-07-03T09:35:24;34.10;99.90
9167;DHT22;4618;48.818;9.088;2022-07-03T09:40:15;33.40;99.90
9167;DHT22;4618;48.818;9.088;2022-07-03T09:45:22;31.60;99.90
9167;DHT22;4618;48.818;9.088;2022-07-03T09:47:47;32.90;99.90
9167;DHT22;4618;48.818;9.088;2022-07-03T09:50:13;32.40;99.90
9167;DHT22;4618;48.818;9.088;2022-07-03T09:52:45;32.40;99.90
9167;DHT22;4618;48.818;9.088;2022-07-03T09:57:59;32.30;99.90
9167;DHT22;4618;48.818;9.088;2022-07-03T10:00:26;33.60;99.90
9167;DHT22;4618;48.818;9.088;2022-07-03T10:03:03;34.50;99.90
9167;DHT22;4618;48.818;9.088;2022-07-03T10:05:40;34.50;99.90
9167;DHT22;4618;48.818;9.088;2022-07-03T10:08:14;33.90;99.90
9167;DHT22;4618;48.818;9.088;2022-07-03T10:10:48;34.40;99.90
9167;DHT22;4618;48.818;9.088;2022-07-03T10:13:15;34.20;99.90
9167;DHT22;4618;48.818;9.088;2022-07-03T10:15:41;34.10;99.90
9167;DHT22;4618;48.818;9.088;2022-07-03T10:18:09;35.10;99.90
9167;DHT22;4618;48.818;9.088;2022-07-03T10:20:47;34.00;99.90
9167;DHT22;4618;48.818;9.088;2022-07-03T10:23:23;33.50;99.90
9167;DHT22;4618;48.818;9.088;2022-07-03T10:25:50;34.30;99.90
9167;DHT22;4618;48.818;9.088;2022-07-03T10:28:17;32.60;99.90
9167;DHT22;4618;48.818;9.088;2022-07-03T10:30:44;33.50;99.90
9167;DHT22;4618;48.818;9.088;2022-07-03T10:33:10;34.20;99.90
9167;DHT22;4618;48.818;9.088;2022-07-03T10:35:41;33.10;99.90
9167;DHT22;4618;48.818;9.088;2022-07-03T10:43:40;33.50;99.90
9167;DHT22;4618;48.818;9.088;2022-07-03T10:46:25;34.10;99.90
9167;DHT22;4618;48.818;9.088;2022-07-03T10:51:23;35.70;99.90
9167;DHT22;4618;48.818;9.088;2022-07-03T10:53:49;35.60;99.90
9167;DHT22;4618;48.818;9.088;2022-07-03T10:56:15;35.30;99.90
9167;DHT22;4618;48.818;9.088;2022-07-03T10:59:07;35.60;99.90
9167;DHT22;4618;48.818;9.088;2022-07-03T11:01:32;36.40;99.90
9167;DHT22;4618;48.818;9.088;2022-07-03T11:04:01;36.70;99.90
9167;DHT22;4618;48.818;9.088;2022-07-03T11:17:20;38.40;99.90
9167;DHT22;4618;48.818;9.088;2022-07-03T11:19:48;38.30;99.90
9167;DHT22;4618;48.818;9.088;2022-07-03T11:22:51;38.20;99.90
9167;DHT22;4618;48.818;9.088;2022-07-03T11:25:18;37.70;99.90
9167;DHT22;4618;48.818;9.088;2022-07-03T11:27:47;37.90;99.90
9167;DHT22;4618;48.818;9.088;2022-07-03T11:30:13;38.10;99.90
9167;DHT22;4618;48.818;9.088;2022-07-03T11:32:48;38.30;99.90
9167;DHT22;4618;48.818;9.088;2022-07-03T11:38:29;36.70;99.90
9167;DHT22;4618;48.818;9.088;2022-07-03T11:40:57;38.00;99.90
9167;DHT22;4618;48.818;9.088;2022-07-03T11:43:23;38.70;99.90
9167;DHT22;4618;48.818;9.088;2022-07-03T11:45:50;38.10;99.90
9167;DHT22;4618;48.818;9.088;2022-07-03T11:48:22;38.20;99.90
9167;DHT22;4618;48.818;9.088;2022-07-03T11:50:49;38.20;99.90
9167;DHT22;4618;48.818;9.088;2022-07-03T11:55:54;39.60;99.90
9167;DHT22;4618;48.818;9.088;2022-07-03T11:58:20;40.20;99.90
9167;DHT22;4618;48.818;9.088;2022-07-03T12:00:46;40.70;99.90
9167;DHT22;4618;48.818;9.088;2022-07-03T12:03:21;40.80;99.90
9167;DHT22;4618;48.818;9.088;2022-07-03T12:05:52;40.50;99.90
9167;DHT22;4618;48.818;9.088;2022-07-03T12:08:22;39.80;99.90
9167;DHT22;4618;48.818;9.088;2022-07-03T12:10:49;40.20;99.90
9167;DHT22;4618;48.818;9.088;2022-07-03T12:13:21;40.00;99.90
9167;DHT22;4618;48.818;9.088;2022-07-03T12:15:48;40.10;99.90
9167;DHT22;4618;48.818;9.088;2022-07-03T12:18:15;39.50;99.90
9167;DHT22;4618;48.818;9.088;2022-07-03T12:20:41;39.10;99.90
9167;DHT22;4618;48.818;9.088;2022-07-03T12:23:07;39.30;99.90
9167;DHT22;4618;48.818;9.088;2022-07-03T12:25:40;39.50;99.90
9167;DHT22;4618;48.818;9.088;2022-07-03T12:28:12;39.40;99.90
9167;DHT22;4618;48.818;9.088;2022-07-03T12:30:38;39.00;99.90
9167;DHT22;4618;48.818;9.088;2022-07-03T12:33:04;39.80;99.90
9167;DHT22;4618;48.818;9.088;2022-07-03T12:35:31;40.50;99.90
9167;DHT22;4618;48.818;9.088;2022-07-03T12:37:56;39.80;99.90
9167;DHT22;4618;48.818;9.088;2022-07-03T12:40:22;39.70;99.90
9167;DHT22;4618;48.818;9.088;2022-07-03T12:42:50;39.60;99.90
9167;DHT22;4618;48.818;9.088;2022-07-03T12:45:21;38.60;99.90
9167;DHT22;4618;48.818;9.088;2022-07-03T12:48:05;38.70;99.90
9167;DHT22;4618;48.818;9.088;2022-07-03T12:53:10;38.40;99.90
9167;DHT22;4618;48.818;9.088;2022-07-03T12:55:36;38.40;99.90
9167;DHT22;4618;48.818;9.088;2022-07-03T12:58:14;37.80;99.90
9167;DHT22;4618;48.818;9.088;2022-07-03T13:00:58;38.10;99.90
9167;DHT22;4618;48.818;9.088;2022-07-03T13:03:35;38.80;99.90
9167;DHT22;4618;48.818;9.088;2022-07-03T13:06:01;38.90;99.90
9167;DHT22;4618;48.818;9.088;2022-07-03T13:08:28;39.10;99.90
9167;DHT22;4618;48.818;9.088;2022-07-03T13:10:57;38.90;99.90
9167;DHT22;4618;48.818;9.088;2022-07-03T13:13:24;39.00;99.90
9167;DHT22;4618;48.818;9.088;2022-07-03T13:15:49;38.50;99.90
9167;DHT22;4618;48.818;9.088;2022-07-03T13:18:15;38.00;99.90
9167;DHT22;4618;48.818;9.088;2022-07-03T13:20:41;38.20;99.90
9167;DHT22;4618;48.818;9.088;2022-07-03T13:23:07;38.90;99.90
9167;DHT22;4618;48.818;9.088;2022-07-03T13:25:35;39.20;99.90
9167;DHT22;4618;48.818;9.088;2022-07-03T13:28:11;38.70;99.90
9167;DHT22;4618;48.818;9.088;2022-07-03T13:30:39;37.80;99.90
9167;DHT22;4618;48.818;9.088;2022-07-03T13:33:05;37.90;99.90
9167;DHT22;4618;48.818;9.088;2022-07-03T13:35:31;37.90;99.90
9167;DHT22;4618;48.818;9.088;2022-07-03T13:37:58;38.10;99.90
9167;DHT22;4618;48.818;9.088;2022-07-03T13:40:23;38.40;99.90
9167;DHT22;4618;48.818;9.088;2022-07-03T13:42:49;38.70;99.90
9167;DHT22;4618;48.818;9.088;2022-07-03T13:45:15;38.40;99.90
9167;DHT22;4618;48.818;9.088;2022-07-03T13:47:40;38.40;99.90
9167;DHT22;4618;48.818;9.088;2022-07-03T13:50:06;38.80;99.90
9167;DHT22;4618;48.818;9.088;2022-07-03T13:52:32;38.70;99.90
9167;DHT22;4618;48.818;9.088;2022-07-03T13:54:57;39.30;99.90
9167;DHT22;4618;48.818;9.088;2022-07-03T13:57:23;39.40;99.90
9167;DHT22;4618;48.818;9.088;2022-07-03T13:59:49;39.20;99.90
9167;DHT22;4618;48.818;9.088;2022-07-03T14:02:15;39.30;99.90
9167;DHT22;4618;48.818;9.088;2022-07-03T14:04:41;39.00;99.90
9167;DHT22;4618;48.818;9.088;2022-07-03T14:07:06;39.20;99.90
9167;DHT22;4618;48.818;9.088;2022-07-03T14:09:32;39.30;99.90
9167;DHT22;4618;48.818;9.088;2022-07-03T14:11:58;39.30;99.90
9167;DHT22;4618;48.818;9.088;2022-07-03T14:14:24;39.40;99.90
9167;DHT22;4618;48.818;9.088;2022-07-03T14:16:50;39.50;99.90
9167;DHT22;4618;48.818;9.088;2022-07-03T14:19:15;39.50;99.90
9167;DHT22;4618;48.818;9.088;2022-07-03T14:21:41;39.20;99.90
9167;DHT22;4618;48.818;9.088;2022-07-03T14:24:06;38.50;99.90
9167;DHT22;4618;48.818;9.088;2022-07-03T14:26:32;37.60;99.90
9167;DHT22;4618;48.818;9.088;2022-07-03T14:29:16;37.80;99.90
9167;DHT22;4618;48.818;9.088;2022-07-03T14:32:00;38.00;99.90
9167;DHT22;4618;48.818;9.088;2022-07-03T14:34:45;38.00;99.90
9167;DHT22;4618;48.818;9.088;2022-07-03T14:37:10;38.10;99.90
9167;DHT22;4618;48.818;9.088;2022-07-03T14:39:36;38.10;99.90
9167;DHT22;4618;48.818;9.088;2022-07-03T14:42:02;38.20;99.90
9167;DHT22;4618;48.818;9.088;2022-07-03T14:44:28;38.30;99.90
9167;DHT22;4618;48.818;9.088;2022-07-03T14:46:54;38.70;99.90
9167;DHT22;4618;48.818;9.088;2022-07-03T14:49:20;38.90;99.90
9167;DHT22;4618;48.818;9.088;2022-07-03T14:51:46;38.80;99.90
9167;DHT22;4618;48.818;9.088;2022-07-03T14:56:48;37.30;93.70
9167;DHT22;4618;48.818;9.088;2022-07-03T14:59:19;37.20;99.90
9167;DHT22;4618;48.818;9.088;2022-07-03T15:01:49;37.10;99.90
9167;DHT22;4618;48.818;9.088;2022-07-03T15:07:02;37.50;99.90
9167;DHT22;4618;48.818;9.088;2022-07-03T15:09:31;37.50;99.90
9167;DHT22;4618;48.818;9.088;2022-07-03T15:12:00;37.50;99.90
9167;DHT22;4618;48.818;9.088;2022-07-03T15:14:45;37.50;99.90
9167;DHT22;4618;48.818;9.088;2022-07-03T15:17:13;37.50;99.90
9167;DHT22;4618;48.818;9.088;2022-07-03T15:19:40;37.50;99.90
9167;DHT22;4618;48.818;9.088;2022-07-03T15:22:08;37.60;99.90
9167;DHT22;4618;48.818;9.088;2022-07-03T15:24:36;37.20;99.90
9167;DHT22;4618;48.818;9.088;2022-07-03T15:27:04;37.00;99.90
9167;DHT22;4618;48.818;9.088;2022-07-03T15:29:31;37.00;99.90
9167;DHT22;4618;48.818;9.088;2022-07-03T15:32:01;37.30;99.90
9167;DHT22;4618;48.818;9.088;2022-07-03T15:34:27;37.60;99.90
9167;DHT22;4618;48.818;9.088;2022-07-03T15:37:16;37.60;99.90
9167;DHT22;4618;48.818;9.088;2022-07-03T15:40:02;37.80;99.90
9167;DHT22;4618;48.818;9.088;2022-07-03T15:51:22;36.70;99.90
9167;DHT22;4618;48.818;9.088;2022-07-03T15:53:56;36.40;99.90
9167;DHT22;4618;48.818;9.088;2022-07-03T15:56:34;36.50;99.90
9167;DHT22;4618;48.818;9.088;2022-07-03T15:59:02;36.80;99.90
9167;DHT22;4618;48.818;9.088;2022-07-03T16:01:29;36.50;99.90
9167;DHT22;4618;48.818;9.088;2022-07-03T16:04:29;36.30;99.90
9167;DHT22;4618;48.818;9.088;2022-07-03T16:06:58;36.30;99.90
9167;DHT22;4618;48.818;9.088;2022-07-03T16:09:25;36.40;99.90
9167;DHT22;4618;48.818;9.088;2022-07-03T16:11:51;36.40;99.90
9167;DHT22;4618;48.818;9.088;2022-07-03T16:14:17;36.40;99.90
9167;DHT22;4618;48.818;9.088;2022-07-03T16:16:43;36.80;99.90
9167;DHT22;4618;48.818;9.088;2022-07-03T16:19:11;36.70;99.90
9167;DHT22;4618;48.818;9.088;2022-07-03T16:21:37;36.50;99.90
9167;DHT22;4618;48.818;9.088;2022-07-03T16:24:05;36.10;99.90
9167;DHT22;4618;48.818;9.088;2022-07-03T16:26:34;36.00;99.90
9167;DHT22;4618;48.818;9.088;2022-07-03T16:29:00;36.20;99.90
9167;DHT22;4618;48.818;9.088;2022-07-03T16:31:30;36.10;99.90
9167;DHT22;4618;48.818;9.088;2022-07-03T16:36:47;33.50;96.10
9167;DHT22;4618;48.818;9.088;2022-07-03T16:39:22;33.40;99.90
9167;DHT22;4618;48.818;9.088;2022-07-03T16:41:49;32.90;99.90
9167;DHT22;4618;48.818;9.088;2022-07-03T16:44:20;32.30;99.90
9167;DHT22;4618;48.818;9.088;2022-07-03T16:46:50;32.20;99.90
9167;DHT22;4618;48.818;9.088;2022-07-03T16:49:20;32.20;99.90
9167;DHT22;4618;48.818;9.088;2022-07-03T16:51:53;31.90;99.90
9167;DHT22;4618;48.818;9.088;2022-07-03T16:54:20;31.60;99.90
9167;DHT22;4618;48.818;9.088;2022-07-03T16:56:48;31.30;99.90
9167;DHT22;4618;48.818;9.088;2022-07-03T16:59:17;31.30;99.90
9167;DHT22;4618;48.818;9.088;2022-07-03T17:01:43;31.10;99.90
9167;DHT22;4618;48.818;9.088;2022-07-03T17:04:09;31.00;99.90
9167;DHT22;4618;48.818;9.088;2022-07-03T17:06:36;31.10;99.90
9167;DHT22;4618;48.818;9.088;2022-07-03T17:09:03;30.90;99.90
9167;DHT22;4618;48.818;9.088;2022-07-03T17:11:30;30.60;99.90
9167;DHT22;4618;48.818;9.088;2022-07-03T17:13:55;30.30;99.90
9167;DHT22;4618;48.818;9.088;2022-07-03T17:16:22;30.00;99.90
9167;DHT22;4618;48.818;9.088;2022-07-03T17:18:51;29.90;99.90
9167;DHT22;4618;48.818;9.088;2022-07-03T17:21:28;29.80;99.90
9167;DHT22;4618;48.818;9.088;2022-07-03T17:23:55;29.60;99.90
9167;DHT22;4618;48.818;9.088;2022-07-03T17:26:23;29.20;99.90
9167;DHT22;4618;48.818;9.088;2022-07-03T17:29:04;29.00;99.90
9167;DHT22;4618;48.818;9.088;2022-07-03T17:31:41;29.10;99.90
9167;DHT22;4618;48.818;9.088;2022-07-03T17:34:08;29.20;99.90
9167;DHT22;4618;48.818;9.088;2022-07-03T17:36:35;29.10;99.90
9167;DHT22;4618;48.818;9.088;2022-07-03T17:39:01;28.90;99.90
9167;DHT22;4618;48.818;9.088;2022-07-03T17:41:29;28.60;99.90
9167;DHT22;4618;48.818;9.088;2022-07-03T17:43:55;28.40;99.90
9167;DHT22;4618;48.818;9.088;2022-07-03T17:46:21;29.00;99.90